ДАННЫЕ О ПОГОДЕ

СЕГОДНЯ
Time Темп. Т росы. Влаж. Давл.
00:07 5 1.7 79 1027.4
00:18 4.7 1.4 79 1027.3
00:28 4.6 1.5 80 1027.3
00:37 4.5 1.4 80 1027.5
00:47 4.5 1.4 80 1027.5
00:53 4.5 1.4 80 1027.5
01:04 4.5 1.4 80 1027.6
01:18 4.4 1.4 81 1027.6
01:23 4.4 1.4 81 1027.7
01:34 4.3 1.3 81 1027.8
01:48 4.3 1.3 81 1027.9
01:58 4.4 1.4 81 1028.1
02:08 4.4 1.4 81 1028.1
02:18 4.4 1.6 82 1028.3
02:28 4.4 1.6 82 1028.4
02:38 4.5 1.7 82 1028.6
02:48 4.5 1.7 82 1028.6
02:58 4.5 1.7 82 1028.6
03:08 4.5 1.9 83 1028.7
03:18 4.5 1.9 83 1028.8
03:28 4.5 1.9 83 1028.9
03:39 4.5 1.9 83 1028.8
03:48 4.4 1.8 83 1029
03:58 4.4 1.8 83 1029
04:08 4.5 1.9 83 1029
04:19 4.5 2 84 1029.2
04:28 4.5 2 84 1029.3
04:38 4.5 2 84 1029.4
04:49 4.5 2 84 1029.6
04:59 4.5 2 84 1029.7
05:08 4.5 2 84 1029.7
05:19 4.5 2 84 1029.8
05:29 4.4 1.9 84 1029.8
05:38 4.3 1.8 84 1029.9
05:48 4.2 1.7 84 1029.9
05:59 4.2 1.7 84 1030
06:10 4.1 1.6 84 1030.2
06:19 4.1 1.8 85 1030.4
06:29 4.1 1.8 85 1030.5
06:39 4 1.7 85 1030.4
06:50 4 1.7 85 1030.5
06:59 4.1 1.8 85 1030.7
07:05 4.1 1.8 85 1030.7
07:15 4.1 1.8 85 1030.8
07:26 4 1.7 85 1030.9
07:40 4.1 1.8 85 1031.1
07:45 4.1 1.8 85 1031.2
07:56 4.1 1.8 85 1031.2
08:09 4.1 1.8 85 1031.5
08:20 4.1 1.8 85 1031.6
08:30 4.1 1.8 85 1031.6
08:40 4.1 1.8 85 1032
08:50 4.1 1.8 85 1032.2
09:00 4.2 1.9 85 1032.4
09:06 4.2 1.9 85 1032.6
09:16 4.2 1.9 85 1032.7
09:30 4.2 1.9 85 1032.9
09:41 4.2 1.9 85 1033.1
09:46 4.3 2 85 1033.2
10:01 4.3 2 85 1033.4
10:10 4.3 2 85 1033.5
10:20 4.4 2.1 85 1034
10:30 4.5 2.2 85 1034
10:41 4.5 2.2 85 1034.3
10:50 4.6 2.3 85 1034.6
11:00 4.6 2.3 85 1034.8
11:11 4.7 2.4 85 1034.9
11:21 4.8 2.5 85 1034.9
11:30 4.8 2.5 85 1035
11:41 4.9 2.6 85 1034.9
11:51 4.9 2.6 85 1034.9
12:00 5 2.7 85 1035
12:10 5.1 2.8 85 1035
12:21 5.1 2.8 85 1035.1
12:31 5.2 2.9 85 1035.2
12:40 5.2 2.9 85 1035.3
12:51 5.3 3 85 1035.3
13:01 5.4 3.1 85 1035.4
13:11 5.4 3.1 85 1035.4
13:20 5.5 3.2 85 1035.6
13:31 5.6 3.3 85 1035.7
13:41 5.7 3.4 85 1035.7
13:51 5.8 3.5 85 1035.9
14:01 5.9 3.6 85 1035.9
14:11 6.1 3.8 85 1035.8
14:21 6.4 4.1 85 1035.8
14:31 6.6 4.3 85 1035.9
14:41 6.6 4.3 85 1035.8
14:51 6.6 4.3 85 1036
15:01 6.5 4.2 85 1036.1
15:11 6.5 4.2 85 1036.3
15:21 6.5 4.2 85 1036.4
15:31 6.5 4.2 85 1036.6
15:41 6.5 4.2 85 1036.8
15:51 6.4 4.1 85 1036.9
16:01 6.4 4.1 85 1037.2
16:11 6.4 4.1 85 1037.4
16:22 6.4 4.1 85 1037.5
16:31 6.3 4 85 1037.9
16:41 6.2 3.9 85 1038
16:52 6.2 3.9 85 1038.2
17:02 6.2 3.9 85 1038.4
17:11 6.2 3.9 85 1038.5
17:21 6.2 3.9 85 1038.5
17:32 6.2 3.9 85 1038.7
17:42 6.2 3.9 85 1038.9
17:51 6.1 3.8 85 1039.1
18:02 6.1 3.8 85 1039.3
18:12 6.1 3.8 85 1039.3
18:22 6 3.7 85 1039.4
18:42 6 3.7 85 1039.7
18:52 5.9 3.6 85 1039.9
19:02 5.9 3.6 85 1040
19:12 5.9 3.6 85 1040.1
19:22 5.8 3.5 85 1040.2
19:32 5.7 3.4 85 1040.3
19:42 5.7 3.4 85 1040.4
19:52 5.6 3.3 85 1040.2
20:02 5.5 3.2 85 1040.4
20:12 5.5 3.2 85 1040.6
20:22 5.5 3.2 85 1040.7
20:32 5.5 3.2 85 1040.9
20:42 5.4 3.1 85 1041.1
20:52 5.2 2.9 85 1041.2
21:02 5 2.7 85 1041.4
21:12 4.8 2.5 85 1041.6
21:22 4.6 2.3 85 1041.7
21:32 4.4 2.1 85 1041.6
21:42 4.2 1.9 85 1041.7
21:52 4.1 1.8 85 1041.7
22:03 4 1.7 85 1041.9

СТАТИСТИКА ЗА ДЕНЬ

2020-01-19
TЕМПЕРАТУРА
СРЕДНЯЯ
5.0
МАКСИМАЛЬНАЯ
6.6
14:31
МИНИМАЛЬНАЯ
4.0
06:39
ДАВЛЕНИЕ
СРЕДНЯЯ
1034.0
МАКСИМАЛЬНАЯ
1041.9
22:03
МИНИМАЛЬНАЯ
1027.3
00:18
ТОЧКА РОСЫ
СРЕДНЯЯ
2.6
МАКСИМАЛЬНАЯ
4.3
14:31
МИНИМАЛЬНАЯ
1.3
01:34
ВЛАЖНОСТЬ
СРЕДНЯЯ
84
МАКСИМАЛЬНАЯ
85
06:19
МИНИМАЛЬНАЯ
79
00:07
TЕМПЕРАТУРА (°C)
МИНИМАЛЬНАЯ
4.0
МАКСИМАЛЬНАЯ
6.6
СРЕДНЯЯ
5.0
ДАВЛЕНИЕ (hpa)
МИНИМАЛЬНАЯ
1027.3
МАКСИМАЛЬНАЯ
1041.9
СРЕДНЯЯ
1034.0
УСТРОЙСТВО